createdAt,value
2023-04-09T00:01:26.079Z,35.20
2023-04-09T00:06:28.968Z,35.03
2023-04-09T00:11:32.006Z,36.33
2023-04-09T00:16:36.289Z,36.20
2023-04-09T00:21:39.234Z,32.73
2023-04-09T00:26:42.112Z,32.07
2023-04-09T00:31:46.362Z,33.93
2023-04-09T00:36:49.396Z,34.60
2023-04-09T00:41:57.274Z,34.80
2023-04-09T00:47:01.799Z,36.80
2023-04-09T00:52:05.012Z,37.80
2023-04-09T00:57:08.055Z,29.30
2023-04-09T01:02:12.966Z,31.50
2023-04-09T01:07:23.302Z,28.93
2023-04-09T01:12:33.985Z,33.43
2023-04-09T01:17:45.302Z,37.07
2023-04-09T01:23:02.271Z,32.80
2023-04-09T01:28:16.508Z,33.47
2023-04-09T01:33:21.441Z,34.07
2023-04-09T01:38:25.638Z,37.93
2023-04-09T01:43:31.549Z,33.47
2023-04-09T01:48:35.438Z,34.23
2023-04-09T01:53:38.524Z,35.93
2023-04-09T01:58:42.953Z,34.83
2023-04-09T02:03:50.038Z,33.80
2023-04-09T02:08:54.726Z,36.30
2023-04-09T02:13:59.664Z,34.63
2023-04-09T02:19:02.675Z,36.03
2023-04-09T02:24:05.937Z,30.53
2023-04-09T02:29:10.289Z,32.73
2023-04-09T02:34:13.153Z,34.63
2023-04-09T02:39:16.173Z,36.77
2023-04-09T02:44:20.583Z,36.20
2023-04-09T02:49:23.723Z,34.70
2023-04-09T02:54:26.670Z,37.47
2023-04-09T02:59:32.967Z,36.20
2023-04-09T03:04:35.995Z,33.10
2023-04-09T03:09:38.963Z,35.07
2023-04-09T03:14:43.212Z,33.80
2023-04-09T03:19:46.153Z,35.90
2023-04-09T03:24:51.052Z,31.93
2023-04-09T03:29:58.184Z,36.67
2023-04-09T03:35:10.478Z,30.47
2023-04-09T03:40:15.480Z,41.07
2023-04-09T03:45:19.786Z,33.30
2023-04-09T03:50:25.155Z,37.07
2023-04-09T03:55:31.367Z,32.53
2023-04-09T04:00:39.211Z,36.20
2023-04-09T04:06:06.425Z,40.23
2023-04-09T04:11:20.431Z,33.80
2023-04-09T04:16:25.712Z,37.87
2023-04-09T04:21:29.983Z,40.10
2023-04-09T04:26:37.032Z,34.40
2023-04-09T04:31:41.386Z,40.07
2023-04-09T04:36:45.160Z,36.43
2023-04-09T04:41:48.465Z,36.10
2023-04-09T04:46:58.455Z,39.03
2023-04-09T04:52:01.433Z,37.63
2023-04-09T04:57:04.789Z,40.00
2023-04-09T05:02:16.305Z,38.00
2023-04-09T05:07:45.631Z,40.90
2023-04-09T05:12:48.910Z,36.87
2023-04-09T05:18:02.712Z,40.67
2023-04-09T05:23:06.246Z,40.67
2023-04-09T05:28:16.829Z,38.33
2023-04-09T05:33:22.477Z,37.40
2023-04-09T05:38:26.526Z,38.87
2023-04-09T05:43:33.422Z,37.83
2023-04-09T05:48:37.960Z,40.77
2023-04-09T05:53:42.825Z,38.47
2023-04-09T05:58:47.671Z,38.77
2023-04-09T06:03:54.087Z,37.27
2023-04-09T06:08:59.161Z,40.57
2023-04-09T06:14:02.058Z,33.40
2023-04-09T06:19:06.290Z,40.40
2023-04-09T06:24:09.237Z,35.13
2023-04-09T06:29:12.149Z,34.47
2023-04-09T06:34:16.368Z,35.57
2023-04-09T06:39:19.297Z,34.30
2023-04-09T06:44:24.311Z,35.50
2023-04-09T06:49:28.904Z,29.23
2023-04-09T06:54:31.828Z,35.80
2023-04-09T06:59:34.787Z,32.40
2023-04-09T07:04:39.159Z,36.90
2023-04-09T07:09:42.190Z,34.73
2023-04-09T07:14:45.039Z,36.20
2023-04-09T07:19:49.345Z,33.27
2023-04-09T07:24:55.139Z,34.63
2023-04-09T07:29:59.523Z,30.43
2023-04-09T07:35:05.077Z,31.23
2023-04-09T07:40:09.320Z,32.07
2023-04-09T07:45:12.229Z,34.20
2023-04-09T07:50:16.930Z,36.50
2023-04-09T07:55:20.285Z,31.90
2023-04-09T08:00:23.330Z,32.07
2023-04-09T08:05:28.405Z,35.63
2023-04-09T08:10:31.310Z,34.30
2023-04-09T08:15:34.202Z,32.93
2023-04-09T08:20:44.820Z,31.57
2023-04-09T08:25:47.838Z,31.30
2023-04-09T08:30:50.857Z,23.10
2023-04-09T08:35:55.074Z,28.87
2023-04-09T08:40:57.964Z,31.90
2023-04-09T08:46:03.169Z,26.50
2023-04-09T08:51:07.814Z,28.20
2023-04-09T08:56:10.829Z,30.93
2023-04-09T09:01:21.464Z,30.47
2023-04-09T09:06:28.678Z,34.80
2023-04-09T09:11:32.010Z,32.03
2023-04-09T09:16:35.954Z,33.10
2023-04-09T09:21:40.742Z,29.53
2023-04-09T09:26:43.774Z,28.97
2023-04-09T09:31:51.591Z,33.40
2023-04-09T09:36:55.910Z,30.20
2023-04-09T09:42:09.042Z,28.97
2023-04-09T09:47:14.293Z,30.40
2023-04-09T09:52:25.546Z,32.73
2023-04-09T09:57:32.589Z,31.23
2023-04-09T10:02:44.938Z,29.17
2023-04-09T10:07:50.398Z,31.53
2023-04-09T10:12:53.589Z,31.40
2023-04-09T10:17:56.936Z,30.70
2023-04-09T10:23:07.026Z,31.67
2023-04-09T10:28:17.528Z,32.50
2023-04-09T10:33:26.514Z,31.97
2023-04-09T10:38:38.414Z,30.70
2023-04-09T10:43:42.090Z,26.27
2023-04-09T10:48:45.008Z,36.53
2023-04-09T10:53:54.274Z,32.00
2023-04-09T10:58:57.162Z,31.00
2023-04-09T11:04:10.883Z,33.77
2023-04-09T11:09:15.226Z,29.37
2023-04-09T11:14:20.732Z,35.10
2023-04-09T11:19:24.440Z,32.00
2023-04-09T11:24:40.787Z,32.77
2023-04-09T11:29:43.703Z,30.80
2023-04-09T11:34:46.566Z,32.57
2023-04-09T11:39:55.581Z,30.83
2023-04-09T11:45:01.063Z,27.47
2023-04-09T11:50:04.212Z,29.53
2023-04-09T11:55:09.705Z,26.33
2023-04-09T12:00:14.589Z,26.43
2023-04-09T12:05:24.690Z,30.10
2023-04-09T12:10:33.138Z,24.60
2023-04-09T12:15:37.085Z,26.80
2023-04-09T12:20:42.311Z,28.90
2023-04-09T12:25:47.669Z,28.63
2023-04-09T12:30:52.109Z,33.07
2023-04-09T12:35:56.082Z,28.07
2023-04-09T12:41:01.265Z,34.63
2023-04-09T12:46:04.519Z,28.33
2023-04-09T12:51:07.664Z,24.50
2023-04-09T12:56:11.967Z,29.97
2023-04-09T13:01:15.044Z,20.43
2023-04-09T13:06:17.996Z,21.13
2023-04-09T13:11:22.296Z,20.00
2023-04-09T13:16:26.050Z,25.33
2023-04-09T13:21:28.980Z,28.63
2023-04-09T13:26:33.271Z,27.03
2023-04-09T13:31:36.904Z,31.10
2023-04-09T13:36:39.803Z,23.00
2023-04-09T13:41:44.648Z,22.70
2023-04-09T13:46:47.521Z,27.90
2023-04-09T13:51:50.938Z,28.60
2023-04-09T13:56:55.447Z,29.13
2023-04-09T14:01:58.669Z,31.73
2023-04-09T14:07:01.726Z,26.80
2023-04-09T14:12:06.468Z,25.90
2023-04-09T14:17:09.348Z,26.80
2023-04-09T14:22:12.548Z,26.70
2023-04-09T14:27:16.873Z,26.33
2023-04-09T14:32:20.096Z,30.07
2023-04-09T14:37:23.099Z,26.90
2023-04-09T14:42:27.400Z,25.20
2023-04-09T14:47:30.483Z,22.60
2023-04-09T14:52:33.416Z,27.17
2023-04-09T14:57:37.718Z,24.33
2023-04-09T15:02:41.549Z,24.60
2023-04-09T15:07:44.743Z,26.53
2023-04-09T15:12:49.064Z,26.07
2023-04-09T15:17:52.123Z,22.63
2023-04-09T15:22:55.014Z,20.20
2023-04-09T15:27:59.995Z,18.63
2023-04-09T15:33:03.040Z,17.40
2023-04-09T15:38:06.056Z,17.83
2023-04-09T15:43:10.402Z,20.13
2023-04-09T15:48:13.416Z,14.63
2023-04-09T15:53:16.748Z,10.90
2023-04-09T15:58:21.095Z,13.40
2023-04-09T16:03:23.977Z,16.20
2023-04-09T16:08:26.931Z,14.23
2023-04-09T16:13:31.318Z,16.40
2023-04-09T16:18:34.838Z,14.63
2023-04-09T16:23:38.463Z,16.63
2023-04-09T16:28:42.760Z,18.60
2023-04-09T16:33:45.862Z,19.30
2023-04-09T16:38:49.943Z,19.77
2023-04-09T16:43:54.332Z,17.00
2023-04-09T16:48:57.234Z,18.87
2023-04-09T16:54:00.361Z,20.10
2023-04-09T16:59:04.749Z,22.70
2023-04-09T17:04:07.850Z,21.57
2023-04-09T17:09:10.895Z,23.37
2023-04-09T17:14:15.427Z,22.40
2023-04-09T17:19:18.534Z,27.23
2023-04-09T17:24:21.470Z,27.40
2023-04-09T17:29:25.771Z,30.00
2023-04-09T17:34:28.955Z,28.17
2023-04-09T17:39:32.073Z,94.87
2023-04-09T17:44:36.997Z,128.70
2023-04-09T17:49:40.323Z,33.00
2023-04-09T17:54:45.464Z,38.90
2023-04-09T17:59:49.999Z,30.90
2023-04-09T18:04:53.124Z,28.63
2023-04-09T18:09:56.233Z,28.43
2023-04-09T18:15:00.504Z,31.10
2023-04-09T18:20:03.513Z,22.47
2023-04-09T18:25:07.525Z,25.23
2023-04-09T18:30:12.924Z,23.47
2023-04-09T18:35:17.428Z,25.97
2023-04-09T18:40:20.688Z,24.40
2023-04-09T18:45:25.488Z,23.87
2023-04-09T18:50:28.450Z,25.07
2023-04-09T18:55:31.772Z,34.43
2023-04-09T19:00:36.572Z,26.47
2023-04-09T19:05:39.710Z,27.50
2023-04-09T19:10:42.620Z,32.43
2023-04-09T19:15:46.964Z,35.20
2023-04-09T19:20:49.887Z,37.60
2023-04-09T19:25:55.167Z,46.77
2023-04-09T19:31:01.397Z,43.60
2023-04-09T19:36:07.930Z,34.00
2023-04-09T19:41:10.863Z,35.30
2023-04-09T19:46:15.434Z,35.90
2023-04-09T19:51:18.656Z,40.27
2023-04-09T19:56:22.119Z,37.10
2023-04-09T20:01:26.764Z,73.83
2023-04-09T20:06:30.760Z,57.63
2023-04-09T20:11:33.710Z,51.87
2023-04-09T20:16:38.249Z,62.57
2023-04-09T20:21:41.969Z,65.67
2023-04-09T20:26:44.912Z,56.87
2023-04-09T20:31:49.330Z,64.13
2023-04-09T20:36:52.344Z,57.77
2023-04-09T20:41:56.554Z,56.57
2023-04-09T20:47:01.137Z,57.60
2023-04-09T20:52:04.074Z,52.57
2023-04-09T20:57:07.173Z,56.80
2023-04-09T21:07:16.671Z,58.43
2023-04-09T21:12:19.600Z,67.20
2023-04-09T21:17:23.911Z,56.20
2023-04-09T21:22:26.828Z,77.97
2023-04-09T21:27:29.767Z,76.27
2023-04-09T21:32:34.109Z,56.97
2023-04-09T21:37:37.640Z,66.23
2023-04-09T21:42:40.657Z,57.37
2023-04-09T21:47:45.480Z,53.13
2023-04-09T21:52:48.470Z,53.17
2023-04-09T21:57:53.591Z,58.87
2023-04-09T22:03:01.264Z,60.90
2023-04-09T22:08:04.424Z,56.83
2023-04-09T22:13:07.747Z,54.83
2023-04-09T22:18:11.988Z,55.67
2023-04-09T22:23:14.864Z,62.83
2023-04-09T22:28:17.805Z,58.70
2023-04-09T22:33:22.076Z,57.53
2023-04-09T22:38:25.376Z,58.60
2023-04-09T22:43:28.505Z,53.27
2023-04-09T22:48:35.887Z,57.00
2023-04-09T22:53:43.876Z,52.93
2023-04-09T22:58:46.815Z,55.40
2023-04-09T23:03:51.640Z,55.70
2023-04-09T23:08:54.790Z,55.20
2023-04-09T23:13:57.876Z,47.80
2023-04-09T23:19:02.106Z,51.20
2023-04-09T23:24:05.410Z,49.67
2023-04-09T23:29:08.317Z,46.90
2023-04-09T23:34:13.005Z,40.83
2023-04-09T23:39:15.935Z,43.37
2023-04-09T23:44:18.783Z,48.70
2023-04-09T23:49:23.161Z,43.60
2023-04-09T23:54:26.055Z,42.90
2023-04-09T23:59:31.131Z,42.30
